Time;durP1;ratioP1;P1;durP2;ratioP2;P2;SDS_P1;SDS_P2;PMS_P1;PMS_P2;Temp;Humidity;BMP_temperature;BMP_pressure;BME280_temperature;BME280_humidity;BME280_pressure;Samples;Min_cycle;Max_cycle;Signal;HPM_P1;HPM_P2
2023/04/14 00:01:32;;;;;;;;;;;;;;;2.54;100.00;100850.88;4989467;28;20019;-73
2023/04/14 00:03:58;;;;;;;;;;;;;;;2.47;100.00;100854.72;4997223;28;19913;-73
2023/04/14 00:06:23;;;;;;;;;;;;;;;2.43;100.00;100852.28;4978707;28;19929;-72
2023/04/14 00:08:48;;;;;;;;;;;;;;;2.41;100.00;100862.91;4987405;28;20324;-73
2023/04/14 00:11:13;;;;;;;;;;;;;;;2.41;100.00;100849.66;4990500;28;19917;-72
2023/04/14 00:13:39;;;;;;;;;;;;;;;2.45;100.00;100856.56;4977736;28;20672;-73
2023/04/14 00:16:05;;;;;;;;;;;;;;;2.48;100.00;100851.13;4993817;28;20273;-72
2023/04/14 00:18:30;;;;;;;;;;;;;;;2.50;100.00;100851.94;4992200;28;19925;-73
2023/04/14 00:20:55;;;;;;;;;;;;;;;2.50;100.00;100853.75;4994789;28;20379;-72
2023/04/14 00:23:20;;;;;;;;;;;;;;;2.48;100.00;100851.13;4993767;28;19963;-73
2023/04/14 00:25:46;;;;;;;;;;;;;;;2.45;100.00;100845.13;4992698;28;20254;-72
2023/04/14 00:28:11;;;;;;;;;;;;;;;2.44;100.00;100852.19;4998071;28;19917;-73
2023/04/14 00:30:36;;;;;;;;;;;;;;;2.52;100.00;100854.50;4989292;28;20607;-72
2023/04/14 00:33:01;;;;;;;;;;;;;;;2.61;100.00;100856.75;4993687;28;20291;-73
2023/04/14 00:35:26;;;;;;;;;;;;;;;2.62;100.00;100839.06;4992391;28;19948;-72
2023/04/14 00:37:52;;;;;;;;;;;;;;;2.81;100.00;100853.22;4991715;28;20309;-73
2023/04/14 00:40:17;;;;;;;;;;;;;;;2.89;100.00;100852.03;4995804;28;19922;-72
2023/04/14 00:42:46;;;;;;;;;;;;;;;2.96;100.00;100854.31;4992177;28;19977;-72
2023/04/14 00:45:11;;;;;;;;;;;;;;;3.03;100.00;100854.03;4996212;28;20032;-73
2023/04/14 00:47:37;;;;;;;;;;;;;;;3.06;100.00;100854.75;4995682;28;20444;-72
2023/04/14 00:50:03;;;;;;;;;;;;;;;3.09;100.00;100859.91;4995605;28;19918;-72
2023/04/14 00:52:28;;;;;;;;;;;;;;;3.13;100.00;100861.50;4996913;28;19922;-72
2023/04/14 00:54:53;;;;;;;;;;;;;;;3.09;100.00;100859.03;4979314;28;19918;-73
2023/04/14 00:57:18;;;;;;;;;;;;;;;3.06;100.00;100867.13;4999162;28;19977;-72
2023/04/14 00:59:43;;;;;;;;;;;;;;;3.08;100.00;100863.50;4999058;28;20040;-72
2023/04/14 01:02:09;;;;;;;;;;;;;;;3.11;100.00;100868.66;4995872;28;19984;-73
2023/04/14 01:04:34;;;;;;;;;;;;;;;3.15;100.00;100872.03;4996255;28;20008;-72
2023/04/14 01:07:00;;;;;;;;;;;;;;;3.12;100.00;100874.81;4999522;28;20014;-72
2023/04/14 01:09:26;;;;;;;;;;;;;;;3.13;100.00;100874.78;4996528;28;19944;-72
2023/04/14 01:12:06;;;;;;;;;;;;;;;3.15;100.00;100877.34;4993831;28;20003;-72
2023/04/14 01:14:41;;;;;;;;;;;;;;;3.19;100.00;100875.41;5010005;28;20343;-72
2023/04/14 01:17:18;;;;;;;;;;;;;;;3.24;100.00;100876.06;4996607;28;19933;-72
2023/04/14 01:19:57;;;;;;;;;;;;;;;3.25;100.00;100870.69;5000853;28;19921;-72
2023/04/14 01:22:22;;;;;;;;;;;;;;;3.23;100.00;100869.03;5001409;28;20367;-72
2023/04/14 01:25:08;;;;;;;;;;;;;;;3.19;100.00;100867.44;4997597;28;19921;-72
2023/04/14 01:27:33;;;;;;;;;;;;;;;3.14;100.00;100871.19;4997636;28;20003;-72
2023/04/14 01:30:01;;;;;;;;;;;;;;;3.12;100.00;100870.41;4996852;28;20032;-72
2023/04/14 01:32:27;;;;;;;;;;;;;;;3.08;100.00;100870.59;5000299;28;20307;-72
2023/04/14 01:35:04;;;;;;;;;;;;;;;3.05;100.00;100868.06;4980444;28;19921;-72
2023/04/14 01:37:31;;;;;;;;;;;;;;;3.04;100.00;100872.53;4999011;28;20059;-72
2023/04/14 01:39:58;;;;;;;;;;;;;;;3.08;100.00;100876.78;4996250;28;19925;-72
2023/04/14 01:42:25;;;;;;;;;;;;;;;3.05;100.00;100876.91;4997343;28;19926;-72
2023/04/14 01:44:51;;;;;;;;;;;;;;;3.00;100.00;100882.44;4997123;28;20327;-72
2023/04/14 01:47:16;;;;;;;;;;;;;;;2.98;100.00;100886.94;4993735;28;19932;-72
2023/04/14 01:49:41;;;;;;;;;;;;;;;2.98;100.00;100888.72;4996451;28;19921;-72
2023/04/14 01:52:08;;;;;;;;;;;;;;;2.99;100.00;100886.00;4995075;28;19964;-72
2023/04/14 01:54:34;;;;;;;;;;;;;;;2.98;100.00;100886.06;4973805;28;19921;-72
2023/04/14 01:57:00;;;;;;;;;;;;;;;3.00;100.00;100884.22;4995473;28;19968;-72
2023/04/14 01:59:25;;;;;;;;;;;;;;;3.02;100.00;100886.81;4995054;28;20372;-72
2023/04/14 02:01:50;;;;;;;;;;;;;;;3.03;100.00;100883.22;4994586;28;20044;-72
2023/04/14 02:04:16;;;;;;;;;;;;;;;3.03;100.00;100883.22;4991016;28;19925;-72
2023/04/14 02:06:42;;;;;;;;;;;;;;;3.02;100.00;100889.47;4998543;28;19929;-72
2023/04/14 02:09:09;;;;;;;;;;;;;;;2.89;100.00;100890.00;5019428;28;19944;-72
2023/04/14 02:11:34;;;;;;;;;;;;;;;2.83;100.00;100891.16;4997471;28;20400;-72
2023/04/14 02:13:59;;;;;;;;;;;;;;;2.79;100.00;100886.03;4995678;28;19921;-72
2023/04/14 02:16:25;;;;;;;;;;;;;;;2.79;100.00;100892.19;4994536;28;19921;-72
2023/04/14 02:18:50;;;;;;;;;;;;;;;2.81;100.00;100893.00;5013198;28;19917;-72
2023/04/14 02:21:15;;;;;;;;;;;;;;;2.80;100.00;100893.06;5012913;28;19956;-72
2023/04/14 02:23:41;;;;;;;;;;;;;;;2.78;100.00;100900.25;5010882;28;19925;-72
2023/04/14 02:26:12;;;;;;;;;;;;;;;2.75;100.00;100905.69;5006872;28;19922;-72
2023/04/14 02:28:40;;;;;;;;;;;;;;;2.75;100.00;100892.41;5006720;28;19917;-72
2023/04/14 02:31:06;;;;;;;;;;;;;;;2.80;100.00;100907.19;5007740;28;19921;-72
2023/04/14 02:33:33;;;;;;;;;;;;;;;2.91;100.00;100903.22;5018515;28;19928;-72
2023/04/14 02:35:58;;;;;;;;;;;;;;;2.95;100.00;100905.66;5016219;28;20295;-72
2023/04/14 02:38:38;;;;;;;;;;;;;;;2.91;100.00;100909.34;5014487;28;20395;-72
2023/04/14 02:41:07;;;;;;;;;;;;;;;2.83;100.00;100920.31;4994672;28;19967;-72
2023/04/14 02:43:35;;;;;;;;;;;;;;;2.76;100.00;100920.66;5012559;28;19920;-72
2023/04/14 02:46:01;;;;;;;;;;;;;;;2.61;100.00;100922.19;5015551;28;19921;-72
2023/04/14 02:48:26;;;;;;;;;;;;;;;2.50;100.00;100925.31;4999360;28;19990;-72
2023/04/14 02:50:52;;;;;;;;;;;;;;;2.40;100.00;100920.38;5016230;28;20007;-72
2023/04/14 02:53:19;;;;;;;;;;;;;;;2.37;100.00;100923.16;5007214;28;19921;-72
2023/04/14 02:55:45;;;;;;;;;;;;;;;2.38;100.00;100930.19;5020027;28;20583;-72
2023/04/14 02:58:10;;;;;;;;;;;;;;;2.33;100.00;100920.72;5022044;28;20555;-72
2023/04/14 03:00:36;;;;;;;;;;;;;;;2.27;100.00;100923.59;5019338;28;20656;-72
2023/04/14 03:03:01;;;;;;;;;;;;;;;2.19;100.00;100935.38;5018592;28;19940;-72
2023/04/14 03:05:27;;;;;;;;;;;;;;;2.03;100.00;100929.84;5021189;28;20715;-72
2023/04/14 03:07:52;;;;;;;;;;;;;;;1.88;100.00;100928.66;5016664;28;20810;-72
2023/04/14 03:10:18;;;;;;;;;;;;;;;1.85;100.00;100933.25;4997376;28;20374;-72
2023/04/14 03:12:44;;;;;;;;;;;;;;;1.83;100.00;100933.31;5012410;28;19971;-73
2023/04/14 03:15:09;;;;;;;;;;;;;;;1.83;100.00;100940.38;5013530;28;20134;-72
2023/04/14 03:17:35;;;;;;;;;;;;;;;1.76;100.00;100931.81;5008168;28;20785;-72
2023/04/14 03:20:01;;;;;;;;;;;;;;;1.77;100.00;100931.75;5012320;28;19921;-72
2023/04/14 03:22:27;;;;;;;;;;;;;;;1.72;100.00;100936.34;5019069;28;19924;-72
2023/04/14 03:24:56;;;;;;;;;;;;;;;1.65;100.00;100933.09;4995011;28;19920;-72
2023/04/14 03:27:24;;;;;;;;;;;;;;;1.53;100.00;100930.06;5009402;28;19925;-72
2023/04/14 03:29:50;;;;;;;;;;;;;;;1.46;100.00;100932.09;5011751;28;19928;-72
2023/04/14 03:32:16;;;;;;;;;;;;;;;1.43;100.00;100922.50;5015767;28;19921;-73
2023/04/14 03:34:42;;;;;;;;;;;;;;;1.50;100.00;100929.25;5009498;28;19921;-72
2023/04/14 03:37:08;;;;;;;;;;;;;;;1.58;100.00;100929.00;5012175;28;19944;-72
2023/04/14 03:39:33;;;;;;;;;;;;;;;1.63;100.00;100929.66;5011277;28;19926;-72
2023/04/14 03:42:00;;;;;;;;;;;;;;;1.67;100.00;100941.00;4991541;28;19925;-72
2023/04/14 03:44:27;;;;;;;;;;;;;;;1.69;100.00;100932.97;5014466;28;19932;-72
2023/04/14 03:46:53;;;;;;;;;;;;;;;1.62;100.00;100938.50;5008153;28;19925;-72
2023/04/14 03:49:19;;;;;;;;;;;;;;;1.58;100.00;100946.63;5011518;28;20026;-72
2023/04/14 03:51:46;;;;;;;;;;;;;;;1.52;100.00;100939.81;5008413;28;19929;-72
2023/04/14 03:54:11;;;;;;;;;;;;;;;1.49;100.00;100938.13;4996485;28;19928;-72
2023/04/14 03:56:39;;;;;;;;;;;;;;;1.54;100.00;100940.59;5019296;28;19926;-72
2023/04/14 03:59:06;;;;;;;;;;;;;;;1.62;100.00;100940.31;5017470;28;19925;-72
2023/04/14 04:01:32;;;;;;;;;;;;;;;1.61;100.00;100946.53;5000142;28;19957;-72
2023/04/14 04:03:57;;;;;;;;;;;;;;;1.56;100.00;100938.75;5019576;28;20024;-72
2023/04/14 04:06:22;;;;;;;;;;;;;;;1.49;100.00;100945.22;5017427;28;20007;-72
2023/04/14 04:08:47;;;;;;;;;;;;;;;1.34;100.00;100946.66;5022386;28;19921;-72
2023/04/14 04:11:13;;;;;;;;;;;;;;;1.31;100.00;100942.34;5018513;28;20006;-72
2023/04/14 04:13:38;;;;;;;;;;;;;;;1.29;100.00;100945.94;5016318;28;19947;-72
2023/04/14 04:16:03;;;;;;;;;;;;;;;1.28;100.00;100949.53;5020314;28;19917;-72
2023/04/14 04:18:29;;;;;;;;;;;;;;;1.30;100.00;100952.97;5025050;28;20512;-72
2023/04/14 04:20:54;;;;;;;;;;;;;;;1.34;100.00;100957.22;5023446;28;19944;-73
2023/04/14 04:23:19;;;;;;;;;;;;;;;1.38;100.00;100960.63;5023771;28;20043;-72
2023/04/14 04:25:45;;;;;;;;;;;;;;;1.47;100.00;100962.94;5025442;28;20444;-72
2023/04/14 04:28:10;;;;;;;;;;;;;;;1.56;100.00;100951.13;5025263;28;20272;-72
2023/04/14 04:30:37;;;;;;;;;;;;;;;1.62;100.00;100953.53;5023376;28;20395;-72
2023/04/14 04:33:02;;;;;;;;;;;;;;;1.70;100.00;100953.25;5004839;28;20623;-72
2023/04/14 04:35:28;;;;;;;;;;;;;;;1.75;100.00;100954.78;5026164;28;19917;-72
2023/04/14 04:37:54;;;;;;;;;;;;;;;1.79;100.00;100960.84;5023276;28;19929;-72
2023/04/14 04:40:19;;;;;;;;;;;;;;;1.79;100.00;100953.72;5024737;28;19996;-72
2023/04/14 04:42:44;;;;;;;;;;;;;;;1.82;100.00;100963.38;5022996;28;19925;-72
2023/04/14 04:45:10;;;;;;;;;;;;;;;1.86;100.00;100950.84;5025249;28;19927;-72
2023/04/14 04:47:35;;;;;;;;;;;;;;;1.91;100.00;100957.69;5020894;28;20353;-72
2023/04/14 04:50:00;;;;;;;;;;;;;;;1.96;100.00;100962.81;5023180;28;19921;-72
2023/04/14 04:52:25;;;;;;;;;;;;;;;1.99;100.00;100957.38;5021430;28;20295;-72
2023/04/14 04:54:51;;;;;;;;;;;;;;;2.01;100.00;100957.31;5016362;28;20391;-72
2023/04/14 04:57:17;;;;;;;;;;;;;;;1.98;100.00;100954.78;4997800;28;20458;-71
2023/04/14 04:59:42;;;;;;;;;;;;;;;1.98;100.00;100955.69;5005830;28;19928;-72
2023/04/14 05:02:07;;;;;;;;;;;;;;;1.98;100.00;100952.16;5012863;28;20383;-72
2023/04/14 05:04:32;;;;;;;;;;;;;;;1.95;100.00;100956.63;5013477;28;20193;-72
2023/04/14 05:06:57;;;;;;;;;;;;;;;1.91;100.00;100949.75;5014749;28;21662;-72
2023/04/14 05:09:23;;;;;;;;;;;;;;;1.94;100.00;100964.66;5011022;28;20019;-72
2023/04/14 05:11:48;;;;;;;;;;;;;;;1.91;100.00;100962.97;5016796;28;19920;-72
2023/04/14 05:14:13;;;;;;;;;;;;;;;1.92;100.00;100962.06;5018659;28;19925;-72
2023/04/14 05:16:38;;;;;;;;;;;;;;;1.90;100.00;100961.25;5014310;28;19929;-72
2023/04/14 05:19:04;;;;;;;;;;;;;;;1.86;100.00;100957.00;5012792;28;19921;-72
2023/04/14 05:21:29;;;;;;;;;;;;;;;1.86;100.00;100961.44;5015004;28;19960;-71
2023/04/14 05:23:54;;;;;;;;;;;;;;;1.88;100.00;100957.81;5014033;28;19930;-71
2023/04/14 05:26:20;;;;;;;;;;;;;;;1.94;100.00;100956.72;5016315;28;19970;-72
2023/04/14 05:28:46;;;;;;;;;;;;;;;2.00;100.00;100956.44;5014639;28;19921;-72
2023/04/14 05:31:11;;;;;;;;;;;;;;;2.08;100.00;100959.66;5015580;28;19971;-71
2023/04/14 05:33:36;;;;;;;;;;;;;;;2.15;100.00;100960.25;5017799;28;19920;-72
2023/04/14 05:36:01;;;;;;;;;;;;;;;2.27;100.00;100958.91;5018381;28;19925;-72
2023/04/14 05:38:26;;;;;;;;;;;;;;;2.38;100.00;100950.53;4998990;28;19925;-72
2023/04/14 05:40:52;;;;;;;;;;;;;;;2.48;100.00;100957.16;5014631;28;19920;-72
2023/04/14 05:43:17;;;;;;;;;;;;;;;2.38;100.00;100959.34;5015767;28;20027;-72
2023/04/14 05:45:42;;;;;;;;;;;;;;;2.33;100.00;100963.09;5013680;28;19978;-72
2023/04/14 05:48:07;;;;;;;;;;;;;;;2.30;100.00;100956.13;5016517;28;20439;-72
2023/04/14 05:50:33;;;;;;;;;;;;;;;2.37;100.00;100965.56;5012718;28;20315;-72
2023/04/14 05:52:59;;;;;;;;;;;;;;;2.50;100.00;100965.06;5019794;28;20343;-72
2023/04/14 05:55:24;;;;;;;;;;;;;;;2.67;100.00;100961.66;5014151;28;20081;-72
2023/04/14 05:57:49;;;;;;;;;;;;;;;2.74;100.00;100965.78;5015178;28;19921;-72
2023/04/14 06:00:14;;;;;;;;;;;;;;;2.89;100.00;100963.41;5008985;28;20427;-72
2023/04/14 06:02:40;;;;;;;;;;;;;;;3.08;100.00;100971.41;5017187;28;20023;-72
2023/04/14 06:05:06;;;;;;;;;;;;;;;3.13;100.00;100964.09;5001965;28;19973;-72
2023/04/14 06:07:32;;;;;;;;;;;;;;;3.28;100.00;100966.09;5013136;28;20342;-72
2023/04/14 06:09:57;;;;;;;;;;;;;;;3.40;100.00;100963.78;5013644;28;19921;-72
2023/04/14 06:12:22;;;;;;;;;;;;;;;3.43;100.00;100956.56;5014766;28;19967;-72
2023/04/14 06:14:47;;;;;;;;;;;;;;;3.67;100.00;100958.13;5015763;28;20029;-72
2023/04/14 06:17:12;;;;;;;;;;;;;;;3.73;100.00;100955.19;5013952;28;20004;-71
2023/04/14 06:19:38;;;;;;;;;;;;;;;3.84;100.00;100954.69;5009395;28;19922;-72
2023/04/14 06:22:04;;;;;;;;;;;;;;;3.92;100.00;100954.31;5009989;28;20064;-71
2023/04/14 06:24:29;;;;;;;;;;;;;;;4.03;100.00;100957.31;5009418;28;20356;-72
2023/04/14 06:26:55;;;;;;;;;;;;;;;4.18;100.00;100956.56;5008604;28;20011;-71
2023/04/14 06:29:20;;;;;;;;;;;;;;;4.31;100.00;100956.81;5007436;28;19921;-71
2023/04/14 06:31:45;;;;;;;;;;;;;;;4.39;100.00;100955.56;5008366;28;19979;-71
2023/04/14 06:34:11;;;;;;;;;;;;;;;4.48;100.00;100955.13;5014058;28;19962;-72
2023/04/14 06:36:36;;;;;;;;;;;;;;;4.52;100.00;100950.50;5015288;28;20419;-72
2023/04/14 06:39:01;;;;;;;;;;;;;;;4.65;100.00;100944.47;5011890;28;20154;-72
2023/04/14 06:41:26;;;;;;;;;;;;;;;4.75;100.00;100941.34;5011017;28;19925;-72
2023/04/14 06:43:52;;;;;;;;;;;;;;;5.00;100.00;100950.72;5015288;28;19921;-72
2023/04/14 06:46:19;;;;;;;;;;;;;;;5.18;100.00;100944.41;5011970;28;20429;-71
2023/04/14 06:48:44;;;;;;;;;;;;;;;5.37;100.00;100943.41;5012560;28;19935;-71
2023/04/14 06:51:11;;;;;;;;;;;;;;;5.55;100.00;100937.09;5010607;28;19927;-72
2023/04/14 06:53:36;;;;;;;;;;;;;;;5.79;100.00;100931.34;5009499;28;20294;-71
2023/04/14 06:56:02;;;;;;;;;;;;;;;5.95;100.00;100942.00;5011248;28;19928;-72
2023/04/14 06:58:27;;;;;;;;;;;;;;;6.20;100.00;100931.75;5013071;28;20484;-72
2023/04/14 07:00:56;;;;;;;;;;;;;;;6.49;100.00;100931.84;5009247;28;19921;-71
2023/04/14 07:03:21;;;;;;;;;;;;;;;6.71;100.00;100928.75;5011188;28;19924;-72
2023/04/14 07:05:46;;;;;;;;;;;;;;;7.01;100.00;100919.84;5009673;28;20252;-72
2023/04/14 07:08:12;;;;;;;;;;;;;;;7.28;100.00;100922.59;5012598;28;19925;-72
2023/04/14 07:10:37;;;;;;;;;;;;;;;7.61;100.00;100917.88;5009285;28;19972;-72
2023/04/14 07:13:02;;;;;;;;;;;;;;;7.92;100.00;100911.41;5008907;28;20027;-72
2023/04/14 07:15:28;;;;;;;;;;;;;;;8.08;100.00;100918.41;5014339;28;19924;-72
2023/04/14 07:17:54;;;;;;;;;;;;;;;8.19;100.00;100915.91;4996875;28;20354;-72
2023/04/14 07:20:19;;;;;;;;;;;;;;;8.32;100.00;100918.59;5013266;28;20383;-71
2023/04/14 07:22:44;;;;;;;;;;;;;;;8.33;100.00;100923.00;5013216;28;19925;-69
2023/04/14 07:25:09;;;;;;;;;;;;;;;8.24;100.00;100913.75;5002773;28;19932;-72
2023/04/14 07:27:35;;;;;;;;;;;;;;;8.30;100.00;100909.81;5016127;28;19928;-71
2023/04/14 07:30:00;;;;;;;;;;;;;;;8.48;100.00;100914.88;5013404;28;19925;-71
2023/04/14 07:32:25;;;;;;;;;;;;;;;8.38;100.00;100907.47;5014749;28;19966;-72
2023/04/14 07:34:51;;;;;;;;;;;;;;;8.46;100.00;100909.66;5006497;28;19971;-72
2023/04/14 07:37:16;;;;;;;;;;;;;;;8.57;100.00;100905.41;5014842;28;19959;-72
2023/04/14 07:39:41;;;;;;;;;;;;;;;8.53;100.00;100899.41;4996407;28;19917;-72
2023/04/14 07:42:06;;;;;;;;;;;;;;;8.83;100.00;100901.78;5000607;28;19925;-72
2023/04/14 07:44:32;;;;;;;;;;;;;;;8.90;100.00;100899.53;5011281;28;20658;-72
2023/04/14 07:46:57;;;;;;;;;;;;;;;8.31;100.00;100882.13;5015981;28;20339;-72
2023/04/14 07:49:23;;;;;;;;;;;;;;;8.74;100.00;100897.06;5017312;28;20013;-72
2023/04/14 07:51:48;;;;;;;;;;;;;;;8.98;100.00;100888.31;5000042;28;19987;-71
2023/04/14 07:54:14;;;;;;;;;;;;;;;8.97;100.00;100892.78;4995660;28;19923;-72
2023/04/14 07:56:40;;;;;;;;;;;;;;;9.12;100.00;100893.53;5021357;28;19963;-72
2023/04/14 07:59:05;;;;;;;;;;;;;;;9.23;100.00;100897.28;5009194;28;20000;-72
2023/04/14 08:01:30;;;;;;;;;;;;;;;9.47;100.00;100893.78;5010430;28;19964;-72
2023/04/14 08:03:55;;;;;;;;;;;;;;;9.74;100.00;100889.09;5016431;28;20005;-72
2023/04/14 08:06:21;;;;;;;;;;;;;;;9.91;100.00;100895.03;4994366;28;19966;-72
2023/04/14 08:08:46;;;;;;;;;;;;;;;9.95;100.00;100893.84;5012841;28;20109;-72
2023/04/14 08:11:11;;;;;;;;;;;;;;;10.27;100.00;100895.94;5013454;28;19917;-70
2023/04/14 08:13:37;;;;;;;;;;;;;;;10.37;100.00;100893.41;5012427;28;19921;-70
2023/04/14 08:16:02;;;;;;;;;;;;;;;10.54;100.00;100886.78;5016063;28;19917;-73
2023/04/14 08:18:27;;;;;;;;;;;;;;;10.72;100.00;100889.00;5015539;28;20366;-70
2023/04/14 08:20:52;;;;;;;;;;;;;;;10.76;100.00;100887.78;5017214;28;20355;-73
2023/04/14 08:23:17;;;;;;;;;;;;;;;11.15;100.00;100879.41;5017058;28;19957;-74
2023/04/14 08:25:43;;;;;;;;;;;;;;;11.16;100.00;100887.31;5004496;28;20004;-73
2023/04/14 08:28:08;;;;;;;;;;;;;;;11.18;96.33;100880.00;5009079;28;20088;-73
2023/04/14 08:30:33;;;;;;;;;;;;;;;11.04;100.00;100880.25;5006409;28;19917;-74
2023/04/14 08:32:59;;;;;;;;;;;;;;;11.17;98.71;100877.44;5012130;28;19921;-74
2023/04/14 08:35:24;;;;;;;;;;;;;;;11.46;99.20;100875.09;5007945;28;19960;-73
2023/04/14 08:37:49;;;;;;;;;;;;;;;11.52;93.39;100877.28;4996438;28;19947;-73
2023/04/14 08:40:14;;;;;;;;;;;;;;;11.65;100.00;100873.59;5006718;28;19925;-72
2023/04/14 08:42:39;;;;;;;;;;;;;;;11.29;91.84;100873.75;5012591;28;20494;-74
2023/04/14 08:45:05;;;;;;;;;;;;;;;11.63;99.33;100881.78;5012955;28;19925;-72
2023/04/14 08:47:30;;;;;;;;;;;;;;;11.75;95.02;100874.53;5012038;28;19929;-72
2023/04/14 08:50:02;;;;;;;;;;;;;;;11.88;100.00;100884.31;5011295;28;19920;-72
2023/04/14 08:52:28;;;;;;;;;;;;;;;11.81;100.00;100874.03;5017004;28;19920;-76
2023/04/14 08:54:54;;;;;;;;;;;;;;;11.45;100.00;100878.75;5019465;28;20370;-72
2023/04/14 08:57:19;;;;;;;;;;;;;;;11.90;94.03;100872.41;5014243;28;19972;-75
2023/04/14 08:59:44;;;;;;;;;;;;;;;12.10;88.41;100878.00;5011261;28;20322;-72
2023/04/14 09:02:10;;;;;;;;;;;;;;;11.96;89.70;100879.13;5011728;28;19925;-72
2023/04/14 09:04:36;;;;;;;;;;;;;;;11.93;93.97;100879.38;5015793;28;19925;-72
2023/04/14 09:07:01;;;;;;;;;;;;;;;12.00;89.36;100873.41;5009226;28;20025;-72
2023/04/14 09:09:27;;;;;;;;;;;;;;;12.06;84.00;100881.91;5016763;28;20244;-72
2023/04/14 09:11:53;;;;;;;;;;;;;;;11.62;84.62;100873.84;5025952;28;20256;-72
2023/04/14 09:14:18;;;;;;;;;;;;;;;11.85;92.60;100877.31;5027643;28;19932;-73
2023/04/14 09:16:44;;;;;;;;;;;;;;;12.13;88.07;100873.22;5017535;28;20555;-73
2023/04/14 09:19:09;;;;;;;;;;;;;;;11.96;80.87;100874.59;5011460;28;19957;-74
2023/04/14 09:21:34;;;;;;;;;;;;;;;12.04;85.24;100879.38;5019865;28;20419;-74
2023/04/14 09:24:00;;;;;;;;;;;;;;;12.39;77.36;100867.47;5021476;28;19917;-76
2023/04/14 09:26:26;;;;;;;;;;;;;;;12.14;80.27;100866.00;5017387;28;19932;-72
2023/04/14 09:28:51;;;;;;;;;;;;;;;12.24;82.99;100866.06;5015539;28;20390;-72
2023/04/14 09:31:16;;;;;;;;;;;;;;;12.70;83.89;100875.63;5017789;28;19929;-72
2023/04/14 09:33:42;;;;;;;;;;;;;;;12.55;80.71;100860.75;5018519;28;19925;-77
2023/04/14 09:36:16;;;;;;;;;;;;;;;12.52;77.20;100863.72;5026606;28;19928;-72
2023/04/14 09:38:41;;;;;;;;;;;;;;;11.92;73.40;100866.94;5015219;28;19928;-73
2023/04/14 09:41:07;;;;;;;;;;;;;;;12.24;71.72;100861.56;5019004;28;19921;-72
2023/04/14 09:43:32;;;;;;;;;;;;;;;11.95;76.04;100867.53;5016110;28;19933;-73
2023/04/14 09:46:03;;;;;;;;;;;;;;;12.28;79.17;100864.84;5011836;28;20749;-73
2023/04/14 09:48:28;;;;;;;;;;;;;;;12.50;73.84;100863.00;5018673;28;19929;-75
2023/04/14 09:51:00;;;;;;;;;;;;;;;12.64;77.55;100861.81;5017990;28;20003;-75
2023/04/14 09:53:32;;;;;;;;;;;;;;;12.60;72.54;100858.53;5034248;28;19929;-73
2023/04/14 09:56:01;;;;;;;;;;;;;;;12.94;78.16;100852.03;5016898;28;20406;-72
2023/04/14 09:58:31;;;;;;;;;;;;;;;13.20;70.80;100844.38;5015298;28;19920;-72
2023/04/14 10:00:58;;;;;;;;;;;;;;;12.87;68.94;100857.97;4999918;28;20399;-74
2023/04/14 10:03:33;;;;;;;;;;;;;;;12.98;74.64;100838.16;5016125;28;20027;-72
2023/04/14 10:05:59;;;;;;;;;;;;;;;13.48;68.62;100842.75;5017299;28;19971;-73
2023/04/14 10:08:45;;;;;;;;;;;;;;;13.45;69.85;100836.81;5014584;28;19925;-75
2023/04/14 10:11:23;;;;;;;;;;;;;;;13.19;66.78;100837.25;5018658;28;19921;-72
2023/04/14 10:13:53;;;;;;;;;;;;;;;13.65;65.14;100841.22;5014980;28;19921;-72
2023/04/14 10:16:18;;;;;;;;;;;;;;;13.75;64.53;100825.06;5013463;28;20335;-75
2023/04/14 10:18:43;;;;;;;;;;;;;;;13.60;62.37;100831.88;4999263;28;19921;-74
2023/04/14 10:21:09;;;;;;;;;;;;;;;13.74;64.25;100833.31;5015691;28;19951;-78
2023/04/14 10:23:40;;;;;;;;;;;;;;;13.77;61.90;100817.66;5017673;28;19917;-74
2023/04/14 10:26:06;;;;;;;;;;;;;;;13.91;58.29;100813.69;5007858;28;19960;-73
2023/04/14 10:28:32;;;;;;;;;;;;;;;13.80;61.29;100820.09;5016461;28;20040;-74
2023/04/14 10:30:57;;;;;;;;;;;;;;;13.89;64.34;100815.69;5014193;28;19927;-74
2023/04/14 10:33:22;;;;;;;;;;;;;;;13.72;63.15;100825.31;5012406;28;19983;-74
2023/04/14 10:35:48;;;;;;;;;;;;;;;14.62;55.58;100806.22;5015719;28;20363;-72
2023/04/14 10:38:14;;;;;;;;;;;;;;;14.69;62.68;100804.66;5016117;28;19962;-74
2023/04/14 10:40:52;;;;;;;;;;;;;;;14.53;57.44;100809.78;5016779;28;19921;-74
2023/04/14 10:43:17;;;;;;;;;;;;;;;14.72;57.72;100806.19;5017318;28;19936;-71
2023/04/14 10:45:52;;;;;;;;;;;;;;;13.76;58.63;100807.88;5016887;28;19917;-72
2023/04/14 10:48:17;;;;;;;;;;;;;;;13.85;59.27;100794.53;5015743;28;20401;-71
2023/04/14 10:50:49;;;;;;;;;;;;;;;14.76;58.22;100791.41;5014174;28;19921;-73
2023/04/14 10:53:14;;;;;;;;;;;;;;;14.87;55.98;100795.75;5009389;28;19931;-75
2023/04/14 10:55:44;;;;;;;;;;;;;;;14.94;56.13;100790.59;5012002;28;19922;-73
2023/04/14 10:58:16;;;;;;;;;;;;;;;15.22;49.59;100788.75;5008421;28;19925;-73
2023/04/14 11:00:42;;;;;;;;;;;;;;;15.29;53.53;100786.31;5014689;28;20019;-72
2023/04/14 11:03:10;;;;;;;;;;;;;;;15.27;54.42;100789.13;5017953;28;20030;-72
2023/04/14 11:05:41;;;;;;;;;;;;;;;15.26;53.14;100789.31;5018048;28;20008;-72
2023/04/14 11:08:13;;;;;;;;;;;;;;;15.20;56.68;100781.78;5016889;28;19928;-73
2023/04/14 11:10:38;;;;;;;;;;;;;;;15.24;55.17;100781.31;5010305;28;19926;-76
2023/04/14 11:13:10;;;;;;;;;;;;;;;15.86;61.22;100777.09;5028634;28;19924;-72
2023/04/14 11:15:45;;;;;;;;;;;;;;;15.91;53.50;100768.50;5012160;28;19921;-77
2023/04/14 11:18:18;;;;;;;;;;;;;;;15.70;53.65;100767.75;5011978;28;20453;-75
2023/04/14 11:20:44;;;;;;;;;;;;;;;15.95;52.27;100769.88;5011304;28;19925;-75
2023/04/14 11:23:11;;;;;;;;;;;;;;;16.95;53.63;100774.91;5006999;28;20398;-75
2023/04/14 11:25:36;;;;;;;;;;;;;;;16.16;50.98;100770.38;5015162;28;20055;-75
2023/04/14 11:28:02;;;;;;;;;;;;;;;16.33;47.90;100763.22;5017225;28;19917;-71
2023/04/14 11:30:27;;;;;;;;;;;;;;;15.77;51.17;100753.63;5016347;28;19928;-74
2023/04/14 11:32:55;;;;;;;;;;;;;;;15.74;53.20;100774.56;5018891;28;19917;-72
2023/04/14 11:35:22;;;;;;;;;;;;;;;16.56;52.17;100769.94;5012673;28;20360;-72
2023/04/14 11:37:47;;;;;;;;;;;;;;;15.81;46.11;100761.25;5015848;28;19917;-72
2023/04/14 11:40:13;;;;;;;;;;;;;;;16.35;48.91;100765.75;5015782;28;20287;-74
2023/04/14 11:42:45;;;;;;;;;;;;;;;16.60;49.81;100776.75;5017931;28;20276;-72
2023/04/14 11:45:12;;;;;;;;;;;;;;;15.14;49.61;100767.88;5014841;28;20464;-72
2023/04/14 11:47:37;;;;;;;;;;;;;;;14.90;53.34;100781.09;5014923;28;20028;-77
2023/04/14 11:50:04;;;;;;;;;;;;;;;15.82;50.58;100754.00;5019617;28;19943;-72
2023/04/14 11:52:30;;;;;;;;;;;;;;;16.15;48.04;100767.84;5014048;28;19986;-71
2023/04/14 11:54:55;;;;;;;;;;;;;;;16.49;49.47;100753.47;5016786;28;19917;-72
2023/04/14 11:57:21;;;;;;;;;;;;;;;16.49;50.89;100758.91;5017154;28;19940;-72
2023/04/14 11:59:46;;;;;;;;;;;;;;;17.43;45.68;100767.13;5013485;28;20423;-73
2023/04/14 12:02:18;;;;;;;;;;;;;;;18.11;44.73;100756.97;5019820;28;19952;-72
2023/04/14 12:04:47;;;;;;;;;;;;;;;17.79;47.93;100747.78;5018885;28;20036;-74
2023/04/14 12:07:13;;;;;;;;;;;;;;;17.70;45.99;100759.69;5017535;28;19925;-73
2023/04/14 12:09:45;;;;;;;;;;;;;;;17.75;43.22;100751.03;5021630;28;20081;-71
2023/04/14 12:12:12;;;;;;;;;;;;;;;17.30;44.91;100751.31;5012012;28;19921;-72
2023/04/14 12:14:38;;;;;;;;;;;;;;;17.30;40.02;100747.72;5013662;28;19967;-71
2023/04/14 12:17:03;;;;;;;;;;;;;;;16.11;45.80;100740.22;5008316;28;20276;-71
2023/04/14 12:19:29;;;;;;;;;;;;;;;15.41;45.04;100739.06;5010508;28;20113;-72
2023/04/14 12:21:54;;;;;;;;;;;;;;;16.49;47.00;100738.09;5011444;28;19929;-75
2023/04/14 12:24:20;;;;;;;;;;;;;;;17.10;46.98;100742.59;5012303;28;19921;-75
2023/04/14 12:26:45;;;;;;;;;;;;;;;17.65;45.57;100743.88;5011129;28;19925;-70
2023/04/14 12:29:14;;;;;;;;;;;;;;;18.99;41.96;100729.06;5017328;28;21055;-66
2023/04/14 12:31:42;;;;;;;;;;;;;;;18.54;38.37;100731.44;5019921;28;20027;-72